Time;durP1;ratioP1;P1;durP2;ratioP2;P2;SDS_P1;SDS_P2;PMS_P1;PMS_P2;Temp;Humidity;BMP_temperature;BMP_pressure;BME280_temperature;BME280_humidity;BME280_pressure;Samples;Min_cycle;Max_cycle;Signal;HPM_P1;HPM_P2
2021/09/24 00:00:33;;;;;;;12.67;9.20;;;12.70;99.90;;;;;;5073805;28;20470;-59
2021/09/24 00:03:00;;;;;;;12.33;8.70;;;12.70;99.90;;;;;;5069484;28;20822;-59
2021/09/24 00:05:28;;;;;;;14.10;9.20;;;12.70;99.90;;;;;;5061381;28;20491;-59
2021/09/24 00:07:55;;;;;;;15.87;8.43;;;12.80;99.90;;;;;;5073964;28;20842;-59
2021/09/24 00:10:22;;;;;;;15.53;9.90;;;12.70;99.90;;;;;;5074783;28;20885;-59
2021/09/24 00:12:50;;;;;;;13.40;8.33;;;12.80;99.90;;;;;;5072275;28;20450;-59
2021/09/24 00:15:19;;;;;;;11.33;8.77;;;12.70;99.90;;;;;;5068030;28;20483;-59
2021/09/24 00:17:46;;;;;;;14.90;8.80;;;12.80;99.90;;;;;;5063766;28;20521;-59
2021/09/24 00:20:14;;;;;;;14.53;8.43;;;12.80;99.90;;;;;;5073264;28;20475;-59
2021/09/24 00:22:42;;;;;;;15.63;9.00;;;12.80;99.90;;;;;;5071548;28;20898;-58
2021/09/24 00:25:10;;;;;;;12.97;8.90;;;12.80;99.90;;;;;;5065084;28;20996;-59
2021/09/24 00:27:37;;;;;;;12.00;8.30;;;12.80;99.90;;;;;;5065936;28;20463;-59
2021/09/24 00:30:08;;;;;;;12.67;8.83;;;12.60;99.90;;;;;;5068242;28;21076;-59
2021/09/24 00:32:35;;;;;;;14.07;8.87;;;12.50;99.90;;;;;;5073373;28;20507;-58
2021/09/24 00:35:03;;;;;;;12.50;9.47;;;12.60;99.90;;;;;;5068677;28;20559;-59
2021/09/24 00:37:30;;;;;;;14.10;8.70;;;12.60;99.90;;;;;;5072967;28;20489;-59
2021/09/24 00:39:57;;;;;;;13.57;9.63;;;12.50;99.90;;;;;;5072904;28;20528;-59
2021/09/24 00:42:24;;;;;;;13.83;9.97;;;12.50;99.90;;;;;;5060845;28;20510;-58
2021/09/24 00:44:52;;;;;;;14.63;9.80;;;12.30;99.90;;;;;;5061482;28;20467;-59
2021/09/24 00:47:22;;;;;;;13.77;9.50;;;12.30;99.90;;;;;;5073242;28;20447;-59
2021/09/24 00:49:49;;;;;;;13.03;9.63;;;12.40;99.90;;;;;;5066834;28;21037;-59
2021/09/24 00:52:18;;;;;;;13.27;8.90;;;12.40;99.90;;;;;;5072866;28;20463;-59
2021/09/24 00:54:47;;;;;;;13.43;8.83;;;12.50;99.90;;;;;;5070146;28;20463;-58
2021/09/24 00:57:15;;;;;;;14.03;9.63;;;12.50;99.90;;;;;;5067411;28;20475;-59
2021/09/24 00:59:42;;;;;;;13.37;8.90;;;12.50;99.90;;;;;;5066098;28;20459;-59
2021/09/24 01:02:09;;;;;;;14.80;9.40;;;12.40;99.90;;;;;;5065036;28;20443;-59
2021/09/24 01:04:37;;;;;;;12.70;8.60;;;12.40;99.90;;;;;;5070144;28;20520;-59
2021/09/24 01:07:05;;;;;;;11.57;7.60;;;12.40;99.90;;;;;;5068431;28;20470;-58
2021/09/24 01:09:32;;;;;;;14.93;9.00;;;12.50;99.90;;;;;;5064064;28;20490;-59
2021/09/24 01:11:59;;;;;;;13.03;8.47;;;12.30;99.90;;;;;;5067950;28;20467;-59
2021/09/24 01:14:29;;;;;;;10.83;8.00;;;12.30;99.90;;;;;;5071729;28;20521;-59
2021/09/24 01:16:56;;;;;;;12.87;8.03;;;12.40;99.90;;;;;;5067728;28;21037;-59
2021/09/24 01:19:23;;;;;;;11.50;8.07;;;12.40;99.90;;;;;;5071697;28;20462;-59
2021/09/24 01:21:51;;;;;;;10.90;7.67;;;12.30;99.90;;;;;;5072713;28;20933;-59
2021/09/24 01:24:18;;;;;;;11.67;8.30;;;12.30;99.90;;;;;;5069373;28;20466;-59
2021/09/24 01:26:47;;;;;;;11.50;7.80;;;12.30;99.90;;;;;;5072158;28;20487;-58
2021/09/24 01:29:14;;;;;;;13.27;7.80;;;12.30;99.90;;;;;;5066197;28;20483;-59
2021/09/24 01:31:41;;;;;;;8.03;6.80;;;12.40;99.90;;;;;;5068698;28;20910;-59
2021/09/24 01:34:08;;;;;;;10.50;7.97;;;12.40;99.90;;;;;;5065013;28;20520;-59
2021/09/24 01:36:35;;;;;;;8.27;6.40;;;12.30;99.90;;;;;;5072566;28;20528;-59
2021/09/24 01:39:06;;;;;;;11.93;8.20;;;12.30;99.90;;;;;;5065288;28;20459;-58
2021/09/24 01:41:34;;;;;;;18.97;7.97;;;12.30;99.90;;;;;;5072724;28;20505;-59
2021/09/24 01:44:01;;;;;;;10.50;7.97;;;12.30;99.90;;;;;;5068080;28;20470;-59
2021/09/24 01:46:28;;;;;;;10.50;7.67;;;12.30;99.90;;;;;;5071733;28;20567;-59
2021/09/24 01:48:55;;;;;;;10.77;7.40;;;12.10;99.90;;;;;;5067662;28;20552;-58
2021/09/24 01:51:22;;;;;;;12.20;7.70;;;12.10;99.90;;;;;;5071889;28;20844;-58
2021/09/24 01:53:49;;;;;;;12.70;7.70;;;12.10;99.90;;;;;;5060111;28;21224;-59
2021/09/24 01:56:17;;;;;;;9.47;7.30;;;12.10;99.90;;;;;;5072795;28;20475;-59
2021/09/24 01:58:44;;;;;;;11.50;7.27;;;12.00;99.90;;;;;;5070464;28;20459;-59
2021/09/24 02:01:11;;;;;;;9.57;6.60;;;12.00;99.90;;;;;;5070098;28;20458;-59
2021/09/24 02:03:38;;;;;;;9.90;7.63;;;12.00;99.90;;;;;;5063627;28;20958;-59
2021/09/24 02:06:05;;;;;;;10.23;7.00;;;12.00;99.90;;;;;;5064334;28;20544;-59
2021/09/24 02:08:32;;;;;;;8.77;6.50;;;12.00;99.90;;;;;;5070347;28;20467;-58
2021/09/24 02:10:59;;;;;;;11.00;7.77;;;12.00;99.90;;;;;;5073048;28;20516;-58
2021/09/24 02:13:27;;;;;;;8.47;6.47;;;12.00;99.90;;;;;;5074430;28;20497;-59
2021/09/24 02:15:54;;;;;;;12.70;6.80;;;12.00;99.90;;;;;;5065111;28;20835;-58
2021/09/24 02:18:21;;;;;;;8.20;6.60;;;11.90;99.90;;;;;;5064077;28;20964;-59
2021/09/24 02:20:48;;;;;;;7.00;5.83;;;11.90;99.90;;;;;;5071170;28;20505;-59
2021/09/24 02:23:15;;;;;;;9.17;6.70;;;11.90;99.90;;;;;;5073776;28;20443;-59
2021/09/24 02:25:42;;;;;;;10.33;6.97;;;11.90;99.90;;;;;;5058892;28;20475;-59
2021/09/24 02:28:09;;;;;;;7.60;5.80;;;11.90;99.90;;;;;;5063994;28;20455;-59
2021/09/24 02:30:38;;;;;;;10.10;6.70;;;11.90;99.90;;;;;;5066857;28;20910;-58
2021/09/24 02:33:05;;;;;;;9.43;6.73;;;11.90;99.90;;;;;;5072544;28;20792;-58
2021/09/24 02:35:32;;;;;;;12.43;6.77;;;12.00;99.90;;;;;;5067249;28;20486;-59
2021/09/24 02:37:59;;;;;;;11.13;7.30;;;12.00;99.90;;;;;;5064302;28;20455;-59
2021/09/24 02:40:26;;;;;;;9.10;7.37;;;11.90;99.90;;;;;;5064541;28;20460;-59
2021/09/24 02:42:53;;;;;;;11.57;6.97;;;12.00;99.90;;;;;;5061388;28;20463;-58
2021/09/24 02:45:24;;;;;;;12.10;7.93;;;11.80;99.90;;;;;;5065696;28;20537;-58
2021/09/24 02:47:52;;;;;;;10.37;7.70;;;11.80;99.90;;;;;;5064010;28;20591;-59
2021/09/24 02:50:21;;;;;;;11.47;7.30;;;11.70;99.90;;;;;;5061948;28;20548;-59
2021/09/24 02:52:48;;;;;;;10.43;7.23;;;11.40;99.90;;;;;;5070449;28;20479;-58
2021/09/24 02:55:18;;;;;;;9.80;7.07;;;11.50;99.90;;;;;;5071468;28;20475;-58
2021/09/24 02:57:45;;;;;;;9.20;6.60;;;11.50;99.90;;;;;;5066739;28;20881;-58
2021/09/24 03:00:13;;;;;;;11.27;7.67;;;11.60;99.90;;;;;;5058810;28;20517;-59
2021/09/24 03:02:41;;;;;;;13.37;8.50;;;11.40;99.90;;;;;;5056043;28;20458;-59
2021/09/24 03:05:10;;;;;;;11.23;8.20;;;11.30;99.90;;;;;;5058662;28;20471;-59
2021/09/24 03:07:37;;;;;;;13.70;8.13;;;11.30;99.90;;;;;;5070893;28;20443;-59
2021/09/24 03:10:05;;;;;;;10.80;7.63;;;11.20;99.90;;;;;;5069552;28;20548;-58
2021/09/24 03:12:32;;;;;;;12.13;7.90;;;11.10;99.90;;;;;;5069561;28;20515;-58
2021/09/24 03:14:59;;;;;;;11.07;8.00;;;11.10;99.90;;;;;;5066057;28;20537;-59
2021/09/24 03:17:26;;;;;;;12.50;8.20;;;11.10;99.90;;;;;;5057426;28;21015;-59
2021/09/24 03:19:53;;;;;;;10.83;7.23;;;11.20;99.90;;;;;;5059815;28;20528;-58
2021/09/24 03:22:21;;;;;;;10.50;7.30;;;11.20;99.90;;;;;;5065041;28;20467;-58
2021/09/24 03:24:48;;;;;;;9.43;7.00;;;11.30;99.90;;;;;;5066878;28;20467;-58
2021/09/24 03:27:15;;;;;;;14.23;7.20;;;11.30;99.90;;;;;;5055657;28;20452;-59
2021/09/24 03:29:42;;;;;;;10.17;6.40;;;11.30;99.90;;;;;;5057276;28;20483;-59
2021/09/24 03:32:09;;;;;;;8.93;6.57;;;11.30;99.90;;;;;;5068244;28;20881;-59
2021/09/24 03:34:36;;;;;;;10.60;7.50;;;11.30;99.90;;;;;;5058397;28;20533;-59
2021/09/24 03:37:04;;;;;;;9.20;6.27;;;11.30;99.90;;;;;;5064741;28;20484;-59
2021/09/24 03:39:32;;;;;;;10.50;7.30;;;11.30;99.90;;;;;;5062107;28;20476;-58
2021/09/24 03:41:59;;;;;;;11.43;7.23;;;11.20;99.90;;;;;;5066397;28;21110;-58
2021/09/24 03:44:26;;;;;;;10.63;7.90;;;11.10;99.90;;;;;;5068600;28;20524;-59
2021/09/24 03:46:53;;;;;;;11.90;7.90;;;11.20;99.90;;;;;;5071102;28;20471;-58
2021/09/24 03:49:20;;;;;;;10.90;7.30;;;11.20;99.90;;;;;;5062787;28;20482;-58
2021/09/24 03:51:47;;;;;;;11.00;7.70;;;11.20;99.90;;;;;;5063971;28;20884;-58
2021/09/24 03:54:14;;;;;;;9.90;7.40;;;11.10;99.90;;;;;;5073362;28;20483;-58
2021/09/24 03:56:43;;;;;;;11.60;7.63;;;11.00;99.90;;;;;;5062497;28;20490;-58
2021/09/24 03:59:10;;;;;;;15.70;8.07;;;10.90;99.90;;;;;;5056487;28;20463;-58
2021/09/24 04:01:37;;;;;;;10.63;7.70;;;10.90;99.90;;;;;;5059071;28;20978;-58
2021/09/24 04:04:04;;;;;;;11.03;8.10;;;10.80;99.90;;;;;;5057431;28;20470;-58
2021/09/24 04:06:31;;;;;;;9.20;7.20;;;10.90;99.90;;;;;;5057567;28;20486;-58
2021/09/24 04:08:59;;;;;;;9.57;7.20;;;11.00;99.90;;;;;;5059185;28;20512;-58
2021/09/24 04:11:29;;;;;;;10.90;7.17;;;11.00;99.90;;;;;;5056269;28;20491;-58
2021/09/24 04:13:58;;;;;;;12.13;7.60;;;11.00;99.90;;;;;;5055499;28;20468;-58
2021/09/24 04:16:26;;;;;;;10.70;7.03;;;11.00;99.90;;;;;;5058306;28;20896;-58
2021/09/24 04:18:53;;;;;;;11.10;7.70;;;11.10;99.90;;;;;;5056270;28;20463;-59
2021/09/24 04:21:20;;;;;;;10.33;7.00;;;11.10;99.90;;;;;;5058014;28;20532;-58
2021/09/24 04:23:47;;;;;;;9.83;7.10;;;11.00;99.90;;;;;;5058156;28;21030;-58
2021/09/24 04:26:18;;;;;;;10.80;7.40;;;11.10;99.90;;;;;;5058528;28;21046;-58
2021/09/24 04:28:46;;;;;;;11.73;8.10;;;11.00;99.90;;;;;;5057132;28;20550;-58
2021/09/24 04:31:14;;;;;;;10.57;7.83;;;10.80;99.90;;;;;;5054853;28;20632;-58
2021/09/24 04:33:42;;;;;;;13.33;8.30;;;10.80;99.90;;;;;;5058086;28;20988;-58
2021/09/24 04:36:09;;;;;;;9.87;7.17;;;10.90;99.90;;;;;;5057940;28;20520;-58
2021/09/24 04:38:36;;;;;;;11.23;8.40;;;10.90;99.90;;;;;;5054861;28;20464;-58
2021/09/24 04:41:03;;;;;;;11.27;7.70;;;10.90;99.90;;;;;;5058622;28;22256;-58
2021/09/24 04:43:31;;;;;;;12.27;8.20;;;10.90;99.90;;;;;;5055952;28;20467;-58
2021/09/24 04:45:58;;;;;;;12.00;8.50;;;10.60;99.90;;;;;;5056523;28;20662;-58
2021/09/24 04:48:26;;;;;;;11.87;8.10;;;10.70;99.90;;;;;;5055463;28;20464;-58
2021/09/24 04:50:53;;;;;;;15.20;8.40;;;10.70;99.90;;;;;;5056203;28;20486;-58
2021/09/24 04:53:21;;;;;;;12.63;8.00;;;10.70;99.90;;;;;;5056736;28;20491;-58
2021/09/24 04:55:48;;;;;;;13.20;9.07;;;10.80;99.90;;;;;;5056039;28;20487;-58
2021/09/24 04:58:15;;;;;;;12.23;7.83;;;10.70;99.90;;;;;;5051883;28;20486;-58
2021/09/24 05:00:42;;;;;;;17.90;9.03;;;10.80;99.90;;;;;;5056525;28;20506;-58
2021/09/24 05:03:09;;;;;;;13.77;8.63;;;10.70;99.90;;;;;;5059153;28;20524;-59
2021/09/24 05:05:38;;;;;;;14.83;8.60;;;10.80;99.90;;;;;;5059744;28;20589;-58
2021/09/24 05:08:05;;;;;;;12.63;8.67;;;10.80;99.90;;;;;;5061707;28;20462;-59
2021/09/24 05:10:32;;;;;;;13.50;9.83;;;10.80;99.90;;;;;;5070720;28;20491;-59
2021/09/24 05:13:00;;;;;;;12.00;8.50;;;10.80;99.90;;;;;;5070537;28;20485;-58
2021/09/24 05:15:28;;;;;;;12.07;8.10;;;10.80;99.90;;;;;;5074246;28;20511;-59
2021/09/24 05:17:55;;;;;;;11.70;8.10;;;10.80;99.90;;;;;;5060926;28;20476;-59
2021/09/24 05:20:25;;;;;;;12.00;9.07;;;10.80;99.90;;;;;;5052934;28;20508;-58
2021/09/24 05:22:54;;;;;;;18.30;11.70;;;10.90;99.90;;;;;;5056673;28;20484;-58
2021/09/24 05:25:22;;;;;;;19.07;11.77;;;10.90;99.90;;;;;;5055439;28;21257;-58
2021/09/24 05:27:49;;;;;;;15.20;10.17;;;10.90;99.90;;;;;;5057446;28;20458;-58
2021/09/24 05:30:17;;;;;;;16.43;10.90;;;10.90;99.90;;;;;;5060761;28;20495;-58
2021/09/24 05:32:44;;;;;;;12.43;8.20;;;10.80;99.90;;;;;;5067642;28;20595;-58
2021/09/24 05:35:14;;;;;;;13.40;8.20;;;10.70;99.90;;;;;;5067679;28;20467;-59
2021/09/24 05:37:42;;;;;;;12.10;7.93;;;10.80;99.90;;;;;;5061842;28;20472;-59
2021/09/24 05:40:12;;;;;;;12.80;8.27;;;10.70;99.90;;;;;;5068840;28;20509;-58
2021/09/24 05:42:39;;;;;;;13.17;9.10;;;10.70;99.90;;;;;;5061183;28;20485;-58
2021/09/24 05:45:10;;;;;;;11.80;8.27;;;10.70;99.90;;;;;;5064875;28;20474;-59
2021/09/24 05:47:38;;;;;;;10.40;7.40;;;10.80;99.90;;;;;;5059540;28;20518;-58
2021/09/24 05:50:11;;;;;;;11.83;7.90;;;10.80;99.90;;;;;;5068750;28;20518;-58
2021/09/24 05:52:39;;;;;;;10.57;8.47;;;11.00;99.90;;;;;;5059724;28;20450;-59
2021/09/24 05:55:07;;;;;;;13.03;8.03;;;11.00;99.90;;;;;;5052039;28;20559;-59
2021/09/24 05:57:36;;;;;;;12.70;8.50;;;11.10;99.90;;;;;;5061813;28;20997;-58
2021/09/24 06:00:05;;;;;;;12.53;7.90;;;11.20;99.90;;;;;;5067677;28;20448;-59
2021/09/24 06:02:32;;;;;;;14.87;7.97;;;11.40;99.90;;;;;;5059289;28;20444;-60
2021/09/24 06:04:59;;;;;;;13.43;7.50;;;11.50;99.90;;;;;;5058255;28;20443;-57
2021/09/24 06:07:26;;;;;;;13.00;8.70;;;11.80;99.90;;;;;;5060965;28;20455;-57
2021/09/24 06:09:54;;;;;;;10.13;8.03;;;12.40;99.90;;;;;;5061526;28;20451;-57
2021/09/24 06:12:21;;;;;;;9.63;6.90;;;13.20;99.90;;;;;;5050390;28;20455;-58
2021/09/24 06:14:50;;;;;;;9.37;6.67;;;14.20;99.90;;;;;;5056226;28;20822;-58
2021/09/24 06:17:18;;;;;;;9.80;5.80;;;15.00;99.90;;;;;;5061935;28;20505;-58
2021/09/24 06:19:45;;;;;;;19.03;6.77;;;15.80;99.90;;;;;;5069162;28;20463;-57
2021/09/24 06:22:12;;;;;;;15.00;6.50;;;16.40;99.90;;;;;;5056013;28;20449;-58
2021/09/24 06:24:39;;;;;;;11.70;5.73;;;16.60;99.90;;;;;;5052128;28;20455;-58
2021/09/24 06:27:14;;;;;;;8.80;6.17;;;16.40;99.90;;;;;;5056245;28;20505;-57
2021/09/24 06:29:41;;;;;;;9.40;6.50;;;15.90;99.90;;;;;;5063725;28;20496;-57
2021/09/24 06:32:10;;;;;;;10.63;6.37;;;15.20;99.90;;;;;;5066843;28;20479;-57
2021/09/24 06:34:37;;;;;;;7.60;6.77;;;14.80;99.90;;;;;;5065697;28;20588;-58
2021/09/24 06:37:05;;;;;;;9.37;6.77;;;14.70;99.90;;;;;;5066600;28;20475;-58
2021/09/24 06:39:32;;;;;;;8.80;6.40;;;14.80;99.90;;;;;;5063075;28;20478;-58
2021/09/24 06:41:59;;;;;;;10.43;6.50;;;14.50;99.90;;;;;;5056637;28;20462;-58
2021/09/24 06:44:26;;;;;;;12.70;6.50;;;14.30;99.90;;;;;;5064210;28;20459;-59
2021/09/24 06:46:53;;;;;;;8.10;6.87;;;14.10;99.90;;;;;;5069172;28;20893;-58
2021/09/24 06:49:24;;;;;;;10.10;7.10;;;14.10;99.90;;;;;;5071527;28;20450;-57
2021/09/24 06:51:53;;;;;;;10.63;6.77;;;14.20;99.90;;;;;;5071178;28;20486;-58
2021/09/24 06:54:21;;;;;;;13.90;7.37;;;13.90;99.90;;;;;;5071216;28;21008;-58
2021/09/24 06:56:49;;;;;;;9.10;7.07;;;13.80;99.90;;;;;;5071309;28;20478;-58
2021/09/24 06:59:16;;;;;;;8.80;7.03;;;14.00;99.90;;;;;;5066491;28;20448;-58
2021/09/24 07:01:44;;;;;;;8.40;6.00;;;14.20;99.90;;;;;;5066420;28;20972;-58
2021/09/24 07:04:11;;;;;;;10.60;6.40;;;14.30;99.90;;;;;;5067215;28;20823;-58
2021/09/24 07:06:40;;;;;;;8.20;6.63;;;14.10;99.90;;;;;;5071252;28;20471;-58
2021/09/24 07:09:07;;;;;;;10.03;7.00;;;14.10;99.90;;;;;;5071104;28;20937;-58
2021/09/24 07:11:34;;;;;;;10.30;6.87;;;14.20;99.90;;;;;;5067994;28;20487;-58
2021/09/24 07:14:01;;;;;;;11.20;6.20;;;14.20;99.90;;;;;;5051119;28;20938;-59
2021/09/24 07:16:28;;;;;;;11.33;6.50;;;14.20;99.90;;;;;;5051290;28;20462;-58
2021/09/24 07:18:55;;;;;;;10.60;6.37;;;14.30;99.90;;;;;;5054930;28;20455;-59
2021/09/24 07:21:22;;;;;;;10.40;6.40;;;14.40;99.90;;;;;;5072441;28;20871;-58
2021/09/24 07:23:50;;;;;;;16.73;7.07;;;14.50;99.90;;;;;;5074721;28;20454;-57
2021/09/24 07:26:17;;;;;;;9.77;7.23;;;14.60;99.90;;;;;;5075281;28;20544;-58
2021/09/24 07:28:44;;;;;;;7.70;5.87;;;14.70;99.90;;;;;;5075327;28;20791;-58
2021/09/24 07:31:12;;;;;;;9.43;5.63;;;14.90;99.90;;;;;;5072244;28;20823;-57
2021/09/24 07:33:39;;;;;;;12.70;5.47;;;15.20;99.90;;;;;;5069014;28;20505;-59
2021/09/24 07:36:06;;;;;;;6.40;5.00;;;15.40;99.90;;;;;;5054923;28;20521;-58
2021/09/24 07:38:33;;;;;;;9.27;5.37;;;15.50;99.90;;;;;;5054895;28;21003;-58
2021/09/24 07:41:02;;;;;;;13.87;7.00;;;15.70;99.90;;;;;;5055687;28;20444;-59
2021/09/24 07:43:29;;;;;;;7.00;4.50;;;15.80;99.90;;;;;;5067211;28;20948;-59
2021/09/24 07:45:56;;;;;;;9.20;4.30;;;16.00;99.90;;;;;;5074708;28;20979;-58
2021/09/24 07:48:23;;;;;;;5.50;4.10;;;16.20;99.90;;;;;;5061691;28;20529;-58
2021/09/24 07:50:50;;;;;;;4.87;4.00;;;16.20;99.90;;;;;;5064511;28;20533;-58
2021/09/24 07:53:17;;;;;;;4.93;3.70;;;16.10;99.90;;;;;;5072630;28;20504;-58
2021/09/24 07:55:44;;;;;;;11.23;3.67;;;16.30;99.90;;;;;;5066432;28;20900;-57
2021/09/24 07:58:13;;;;;;;5.37;3.17;;;16.40;99.90;;;;;;5066040;28;20447;-57
2021/09/24 08:00:40;;;;;;;6.70;4.87;;;16.80;99.90;;;;;;5054371;28;20444;-58
2021/09/24 08:03:07;;;;;;;6.07;3.83;;;17.00;99.90;;;;;;5054985;28;20937;-57
2021/09/24 08:05:34;;;;;;;4.77;3.63;;;17.20;99.90;;;;;;5071526;28;20486;-57
2021/09/24 08:08:01;;;;;;;3.73;3.20;;;17.50;99.90;;;;;;5073059;28;20504;-58
2021/09/24 08:10:31;;;;;;;4.13;3.60;;;18.00;99.90;;;;;;5072998;28;20446;-56
2021/09/24 08:12:58;;;;;;;4.27;3.43;;;18.30;99.90;;;;;;5074410;28;20439;-58
2021/09/24 08:15:29;;;;;;;6.50;3.60;;;18.70;99.90;;;;;;5074212;28;20474;-58
2021/09/24 08:17:56;;;;;;;3.10;2.80;;;19.30;99.90;;;;;;5069488;28;20981;-57
2021/09/24 08:20:23;;;;;;;6.50;3.10;;;19.90;99.90;;;;;;5058952;28;20518;-59
2021/09/24 08:22:50;;;;;;;4.07;3.57;;;20.20;99.90;;;;;;5074036;28;20450;-58
2021/09/24 08:25:19;;;;;;;3.40;3.03;;;20.60;99.90;;;;;;5072678;28;20516;-58
2021/09/24 08:27:47;;;;;;;6.97;3.10;;;21.10;99.90;;;;;;5054901;28;20898;-58
2021/09/24 08:30:17;;;;;;;3.87;3.47;;;21.60;99.90;;;;;;5053617;28;20498;-59
2021/09/24 08:32:46;;;;;;;3.80;3.33;;;21.40;99.90;;;;;;5063376;28;20483;-59
2021/09/24 08:35:14;;;;;;;3.13;2.83;;;21.50;99.90;;;;;;5072642;28;20496;-59
2021/09/24 08:37:42;;;;;;;4.57;3.70;;;21.20;99.90;;;;;;5071819;28;20446;-59
2021/09/24 08:40:11;;;;;;;4.20;3.80;;;21.40;99.90;;;;;;5053883;28;20887;-59
2021/09/24 08:42:39;;;;;;;7.50;3.17;;;21.40;99.90;;;;;;5053878;28;20455;-59
2021/09/24 08:45:10;;;;;;;10.10;3.50;;;21.60;99.90;;;;;;5053807;28;20467;-59
2021/09/24 08:47:38;;;;;;;4.93;3.43;;;21.50;99.90;;;;;;5054628;28;20501;-59
2021/09/24 08:50:07;;;;;;;4.20;3.30;;;21.60;99.90;;;;;;5073735;28;20458;-59
2021/09/24 08:52:35;;;;;;;4.67;2.90;;;21.70;99.90;;;;;;5073656;28;20486;-59
2021/09/24 08:55:04;;;;;;;3.50;3.20;;;22.00;99.90;;;;;;5073469;28;20984;-59
2021/09/24 08:57:31;;;;;;;3.77;3.47;;;22.40;99.90;;;;;;5073301;28;20442;-59
2021/09/24 08:59:58;;;;;;;6.27;3.40;;;22.20;99.90;;;;;;5053528;28;20804;-60
2021/09/24 09:02:25;;;;;;;5.93;3.53;;;22.60;99.90;;;;;;5053233;28;20893;-59
2021/09/24 09:04:52;;;;;;;5.93;3.30;;;23.30;99.90;;;;;;5053377;28;21003;-61
2021/09/24 09:07:22;;;;;;;3.67;3.30;;;23.60;99.90;;;;;;5053573;28;20443;-61
2021/09/24 09:09:52;;;;;;;4.00;3.07;;;23.40;99.90;;;;;;5070439;28;20447;-61
2021/09/24 09:12:21;;;;;;;3.37;3.00;;;23.50;99.90;;;;;;5072601;28;20483;-62
2021/09/24 09:15:00;;;;;;;3.90;3.13;;;23.60;99.90;;;;;;5073320;28;20478;-61
2021/09/24 09:17:32;;;;;;;4.40;3.80;;;24.00;99.90;;;;;;5073237;28;21006;-62
2021/09/24 09:20:14;;;;;;;3.27;3.00;;;24.20;99.90;;;;;;5072816;28;20520;-62
2021/09/24 09:22:44;;;;;;;5.40;3.27;;;23.90;99.90;;;;;;5073397;28;20446;-61
2021/09/24 09:25:22;;;;;;;2.97;2.70;;;24.20;99.90;;;;;;5073251;28;20467;-61
2021/09/24 09:27:50;;;;;;;4.13;3.00;;;24.60;99.90;;;;;;5071123;28;20541;-61
2021/09/24 09:30:18;;;;;;;6.20;3.47;;;24.40;99.90;;;;;;5052904;28;20823;-62
2021/09/24 09:32:57;;;;;;;3.33;3.03;;;24.40;99.90;;;;;;5052870;28;20475;-61
2021/09/24 09:35:25;;;;;;;4.20;3.50;;;23.80;99.90;;;;;;5053088;28;20468;-62
2021/09/24 09:37:53;;;;;;;3.63;3.33;;;24.40;99.90;;;;;;5054204;28;20447;-62
2021/09/24 09:40:23;;;;;;;3.83;3.43;;;24.70;99.90;;;;;;5065619;28;20448;-61
2021/09/24 09:42:55;;;;;;;5.03;3.90;;;24.90;99.90;;;;;;5052781;28;20455;-62
2021/09/24 09:45:28;;;;;;;4.30;3.67;;;25.50;99.90;;;;;;5052598;28;20468;-61
2021/09/24 09:47:56;;;;;;;5.63;3.67;;;25.60;99.90;;;;;;5053507;28;20938;-61
2021/09/24 09:50:25;;;;;;;5.97;4.40;;;25.50;99.90;;;;;;5067199;28;20621;-61
2021/09/24 09:53:01;;;;;;;4.10;3.80;;;25.70;99.90;;;;;;5061779;28;20615;-61
2021/09/24 09:55:31;;;;;;;4.53;4.10;;;26.00;99.90;;;;;;5072226;28;20531;-62
2021/09/24 09:58:00;;;;;;;4.50;4.10;;;26.30;99.90;;;;;;5070911;28;20447;-61
2021/09/24 10:00:28;;;;;;;5.37;4.57;;;25.30;99.90;;;;;;5052369;28;20479;-61
2021/09/24 10:03:07;;;;;;;6.33;4.87;;;25.00;99.90;;;;;;5052427;28;20941;-61
2021/09/24 10:05:35;;;;;;;5.73;5.10;;;25.50;99.90;;;;;;5051841;28;21056;-61
2021/09/24 10:08:19;;;;;;;5.97;5.37;;;25.20;99.90;;;;;;5053168;28;20447;-60
2021/09/24 10:11:04;;;;;;;10.60;6.90;;;24.80;99.90;;;;;;5066065;28;20450;-60
2021/09/24 10:13:34;;;;;;;8.30;6.73;;;24.00;99.90;;;;;;5052395;28;20451;-60
2021/09/24 10:16:03;;;;;;;6.87;6.13;;;23.80;99.90;;;;;;5052093;28;20521;-60
2021/09/24 10:18:31;;;;;;;7.87;7.07;;;23.30;99.90;;;;;;5056406;28;21014;-60
2021/09/24 10:20:58;;;;;;;8.90;6.90;;;23.60;99.90;;;;;;5071991;28;20453;-61
2021/09/24 10:23:27;;;;;;;9.27;7.30;;;24.30;99.90;;;;;;5059793;28;20512;-60
2021/09/24 10:26:03;;;;;;;7.80;7.00;;;23.70;99.90;;;;;;5051706;28;20521;-61
2021/09/24 10:28:33;;;;;;;8.00;6.70;;;23.60;99.90;;;;;;5055849;28;20459;-61
2021/09/24 10:31:01;;;;;;;8.20;6.60;;;23.40;99.90;;;;;;5064443;28;20501;-61
2021/09/24 10:33:46;;;;;;;7.43;6.33;;;23.60;99.90;;;;;;5051945;28;20483;-61
2021/09/24 10:36:39;;;;;;;8.07;7.27;;;23.70;99.90;;;;;;5066579;28;20434;-61
2021/09/24 10:39:43;;;;;;;8.30;7.40;;;24.00;99.90;;;;;;5070456;28;20500;-61
2021/09/24 10:42:34;;;;;;;7.60;6.83;;;24.20;99.90;;;;;;5056196;28;20444;-61
2021/09/24 10:45:14;;;;;;;10.60;7.70;;;24.10;99.90;;;;;;5055786;28;21110;-60
2021/09/24 10:48:02;;;;;;;7.30;6.57;;;23.50;99.90;;;;;;5056332;28;20501;-60
2021/09/24 10:51:05;;;;;;;10.00;8.13;;;23.60;99.90;;;;;;5063499;28;20989;-61
2021/09/24 10:53:49;;;;;;;10.23;9.13;;;23.70;99.90;;;;;;5051373;28;20479;-60
2021/09/24 10:56:29;;;;;;;11.97;9.63;;;22.80;99.90;;;;;;5050986;28;20479;-61
2021/09/24 10:58:57;;;;;;;13.23;10.43;;;22.00;99.90;;;;;;5050996;28;20953;-59
2021/09/24 11:01:36;;;;;;;14.27;10.87;;;21.40;99.90;;;;;;5069057;28;20472;-60
2021/09/24 11:04:15;;;;;;;16.67;10.00;;;21.60;99.90;;;;;;5071798;28;20451;-59
2021/09/24 11:06:48;;;;;;;11.40;8.93;;;21.60;99.90;;;;;;5071480;28;20458;-60
2021/09/24 11:09:17;;;;;;;11.03;9.37;;;21.70;99.90;;;;;;5070758;28;20462;-60
2021/09/24 11:11:48;;;;;;;11.20;9.10;;;22.10;99.90;;;;;;5069663;28;20502;-60
2021/09/24 11:14:34;;;;;;;13.10;9.00;;;22.00;99.90;;;;;;5051467;28;20452;-60
2021/09/24 11:17:03;;;;;;;10.00;8.17;;;21.50;99.90;;;;;;5051484;28;20468;-59
2021/09/24 11:19:45;;;;;;;12.57;9.30;;;20.90;99.90;;;;;;5061762;28;20447;-60
2021/09/24 11:22:37;;;;;;;11.13;8.80;;;21.00;99.90;;;;;;5067363;28;20442;-59
2021/09/24 11:25:08;;;;;;;11.27;8.07;;;21.20;99.90;;;;;;5054164;28;20484;-59
2021/09/24 11:27:39;;;;;;;11.50;8.80;;;21.40;99.90;;;;;;5071411;28;20447;-60
2021/09/24 11:30:24;;;;;;;11.90;9.43;;;21.20;99.90;;;;;;5056353;28;20573;-63
2021/09/24 11:32:54;;;;;;;10.70;8.77;;;20.90;99.90;;;;;;5051307;28;20859;-58
2021/09/24 11:35:39;;;;;;;10.10;8.77;;;20.80;99.90;;;;;;5051349;28;20521;-60
2021/09/24 11:38:18;;;;;;;9.97;7.63;;;21.00;99.90;;;;;;5051246;28;20508;-59
2021/09/24 11:40:52;;;;;;;11.77;9.50;;;21.40;99.90;;;;;;5054055;28;20450;-59
2021/09/24 11:43:32;;;;;;;11.50;8.83;;;21.10;99.90;;;;;;5059028;28;20444;-60
2021/09/24 11:46:01;;;;;;;12.60;9.67;;;20.90;99.90;;;;;;5051217;28;20537;-60
2021/09/24 11:48:33;;;;;;;11.67;8.47;;;20.70;99.90;;;;;;5055044;28;20447;-59
2021/09/24 11:51:18;;;;;;;12.90;8.97;;;21.00;99.90;;;;;;5069961;28;20500;-59
2021/09/24 11:53:52;;;;;;;13.70;8.70;;;21.00;99.90;;;;;;5050836;28;20560;-60
2021/09/24 11:56:32;;;;;;;10.50;8.70;;;20.90;99.90;;;;;;5050959;28;20475;-61
2021/09/24 11:59:06;;;;;;;11.27;8.60;;;20.80;99.90;;;;;;5051057;28;20534;-59
2021/09/24 12:01:34;;;;;;;12.70;8.37;;;21.00;99.90;;;;;;5051260;28;20452;-60
2021/09/24 12:04:03;;;;;;;11.60;9.23;;;21.10;99.90;;;;;;5050938;28;20444;-59
2021/09/24 12:06:34;;;;;;;9.17;7.93;;;21.00;99.90;;;;;;5050816;28;20988;-60
2021/09/24 12:09:08;;;;;;;10.70;8.90;;;21.00;99.90;;;;;;5053901;28;20448;-58
2021/09/24 12:11:43;;;;;;;10.67;8.50;;;20.90;99.90;;;;;;5064177;28;20449;-59
2021/09/24 12:14:12;;;;;;;12.40;9.17;;;21.00;99.90;;;;;;5074656;28;20880;-59
2021/09/24 12:16:41;;;;;;;11.47;8.70;;;21.10;99.90;;;;;;5074309;28;20474;-59
2021/09/24 12:19:09;;;;;;;10.93;8.03;;;21.50;99.90;;;;;;5074408;28;20893;-59
2021/09/24 12:21:51;;;;;;;11.80;9.10;;;21.40;99.90;;;;;;5070078;28;20446;-59
2021/09/24 12:24:21;;;;;;;10.17;8.50;;;21.30;99.90;;;;;;5073710;28;20439;-58
2021/09/24 12:26:50;;;;;;;14.47;8.03;;;21.20;99.90;;;;;;5074150;28;20463;-58
2021/09/24 12:29:24;;;;;;;9.77;8.03;;;21.30;99.90;;;;;;5074252;28;20519;-58
2021/09/24 12:31:53;;;;;;;10.60;8.67;;;21.60;99.90;;;;;;5067262;28;20485;-58
2021/09/24 12:34:22;;;;;;;10.17;8.53;;;21.60;99.90;;;;;;5074011;28;20504;-59
2021/09/24 12:36:52;;;;;;;10.43;8.30;;;21.60;99.90;;;;;;5074177;28;20516;-59
2021/09/24 12:39:22;;;;;;;10.80;7.53;;;21.40;99.90;;;;;;5074036;28;20804;-58
2021/09/24 12:41:49;;;;;;;11.67;9.40;;;21.40;99.90;;;;;;5063407;28;20973;-58
2021/09/24 12:44:18;;;;;;;11.17;8.90;;;21.40;99.90;;;;;;5053893;28;20448;-58
2021/09/24 12:46:47;;;;;;;12.20;8.30;;;21.40;99.90;;;;;;5053730;28;20464;-58
2021/09/24 12:49:14;;;;;;;10.67;9.03;;;21.40;99.90;;;;;;5054089;28;20504;-58
2021/09/24 12:51:42;;;;;;;9.17;8.17;;;21.30;99.90;;;;;;5058302;28;20505;-58